createdAt,value
2022-10-13T00:00:11.468Z,0
2022-10-13T00:01:12.026Z,0
2022-10-13T00:02:11.762Z,0
2022-10-13T00:03:11.786Z,0
2022-10-13T00:04:11.283Z,0
2022-10-13T00:05:11.307Z,0
2022-10-13T00:06:11.852Z,0
2022-10-13T00:07:11.861Z,0
2022-10-13T00:08:11.626Z,0
2022-10-13T00:09:11.642Z,0
2022-10-13T00:10:11.656Z,0
2022-10-13T00:11:11.417Z,0
2022-10-13T00:12:11.691Z,0
2022-10-13T00:13:11.694Z,0
2022-10-13T00:14:11.713Z,0
2022-10-13T00:15:12.114Z,0
2022-10-13T00:16:11.765Z,0
2022-10-13T00:17:11.810Z,0
2022-10-13T00:18:11.813Z,0
2022-10-13T00:19:17.681Z,0
2022-10-13T00:20:11.826Z,0
2022-10-13T00:21:12.005Z,0
2022-10-13T00:22:11.881Z,0
2022-10-13T00:23:11.623Z,0
2022-10-13T00:24:11.906Z,0
2022-10-13T00:25:12.198Z,0
2022-10-13T00:26:11.945Z,0
2022-10-13T00:27:11.696Z,0
2022-10-13T00:28:11.772Z,0
2022-10-13T00:29:11.902Z,0
2022-10-13T00:30:11.509Z,0
2022-10-13T00:31:12.140Z,0
2022-10-13T00:32:11.790Z,0
2022-10-13T00:33:12.490Z,0
2022-10-13T00:34:12.107Z,0
2022-10-13T00:35:12.052Z,0
2022-10-13T00:36:12.341Z,0
2022-10-13T00:37:12.498Z,0
2022-10-13T00:38:12.263Z,0
2022-10-13T00:39:12.022Z,0
2022-10-13T00:40:12.285Z,0
2022-10-13T00:41:11.798Z,0
2022-10-13T00:42:11.964Z,0
2022-10-13T00:43:12.036Z,0
2022-10-13T00:44:12.272Z,0
2022-10-13T00:45:12.026Z,0
2022-10-13T00:46:12.297Z,0
2022-10-13T00:47:12.663Z,0
2022-10-13T00:48:12.330Z,0
2022-10-13T00:49:12.394Z,0
2022-10-13T00:50:12.382Z,0
2022-10-13T00:51:12.395Z,0
2022-10-13T00:52:12.417Z,0
2022-10-13T00:53:12.172Z,0
2022-10-13T00:54:12.447Z,0
2022-10-13T00:55:12.461Z,0
2022-10-13T00:56:12.932Z,0
2022-10-13T00:57:12.498Z,0
2022-10-13T00:58:15.312Z,0
2022-10-13T00:59:12.528Z,0
2022-10-13T01:00:12.562Z,0
2022-10-13T01:01:12.906Z,0
2022-10-13T01:02:12.597Z,0
2022-10-13T01:03:12.691Z,0
2022-10-13T01:04:12.107Z,0
2022-10-13T01:05:12.901Z,0
2022-10-13T01:06:12.908Z,0
2022-10-13T01:07:12.681Z,0
2022-10-13T01:08:12.427Z,0
2022-10-13T01:09:12.446Z,0
2022-10-13T01:10:12.198Z,0
2022-10-13T01:11:12.488Z,0
2022-10-13T01:12:12.508Z,0
2022-10-13T01:13:12.274Z,0
2022-10-13T01:14:12.895Z,0
2022-10-13T01:15:12.560Z,0
2022-10-13T01:16:12.312Z,0
2022-10-13T01:17:12.892Z,0
2022-10-13T01:18:13.133Z,0
2022-10-13T01:19:13.230Z,0
2022-10-13T01:20:12.660Z,0
2022-10-13T01:21:13.136Z,0
2022-10-13T01:22:12.925Z,0
2022-10-13T01:23:12.954Z,0
2022-10-13T01:24:13.219Z,0
2022-10-13T01:25:12.985Z,0
2022-10-13T01:26:12.991Z,0
2022-10-13T01:27:13.026Z,0
2022-10-13T01:28:12.965Z,0
2022-10-13T01:29:12.955Z,0
2022-10-13T01:30:13.087Z,0
2022-10-13T01:31:13.108Z,0
2022-10-13T01:32:13.127Z,0
2022-10-13T01:33:12.859Z,0
2022-10-13T01:34:13.394Z,0
2022-10-13T01:35:13.265Z,0
2022-10-13T01:36:13.437Z,0
2022-10-13T01:37:13.220Z,0
2022-10-13T01:38:12.963Z,0
2022-10-13T01:39:13.489Z,0
2022-10-13T01:40:13.258Z,0
2022-10-13T01:41:15.554Z,0
2022-10-13T01:42:16.215Z,0
2022-10-13T01:43:13.300Z,0
2022-10-13T01:44:12.915Z,0
2022-10-13T01:45:13.354Z,0
2022-10-13T01:46:13.341Z,0
2022-10-13T01:47:13.127Z,0
2022-10-13T01:48:13.384Z,0
2022-10-13T01:49:13.668Z,0
2022-10-13T01:50:13.170Z,0
2022-10-13T01:51:13.810Z,0
2022-10-13T01:52:12.958Z,0
2022-10-13T01:53:13.770Z,0
2022-10-13T01:54:13.245Z,0
2022-10-13T01:55:13.261Z,0
2022-10-13T01:56:13.544Z,0
2022-10-13T01:57:13.046Z,0
2022-10-13T01:58:13.831Z,0
2022-10-13T01:59:12.882Z,0
2022-10-13T02:00:13.871Z,0
2022-10-13T02:01:13.719Z,0
2022-10-13T02:02:13.648Z,0
2022-10-13T02:03:13.649Z,0
2022-10-13T02:04:13.430Z,0
2022-10-13T02:05:13.696Z,0
2022-10-13T02:06:13.711Z,0
2022-10-13T02:07:13.830Z,0
2022-10-13T02:08:13.757Z,0
2022-10-13T02:09:14.165Z,0
2022-10-13T02:10:13.531Z,0
2022-10-13T02:11:13.812Z,0
2022-10-13T02:12:14.081Z,0
2022-10-13T02:13:13.842Z,0
2022-10-13T02:14:14.099Z,0
2022-10-13T02:15:14.151Z,0
2022-10-13T02:16:13.389Z,0
2022-10-13T02:17:14.167Z,0
2022-10-13T02:18:13.684Z,0
2022-10-13T02:19:13.699Z,0
2022-10-13T02:20:13.965Z,0
2022-10-13T02:21:13.767Z,0
2022-10-13T02:22:14.004Z,0
2022-10-13T02:23:14.415Z,0
2022-10-13T02:24:13.772Z,0
2022-10-13T02:25:14.368Z,0
2022-10-13T02:26:14.079Z,0
2022-10-13T02:27:13.627Z,0
2022-10-13T02:28:14.221Z,0
2022-10-13T02:29:14.132Z,0
2022-10-13T02:30:14.145Z,0
2022-10-13T02:31:14.412Z,0
2022-10-13T02:32:13.659Z,0
2022-10-13T02:33:14.199Z,0
2022-10-13T02:34:14.475Z,0
2022-10-13T02:35:14.489Z,0
2022-10-13T02:36:14.251Z,0
2022-10-13T02:37:14.527Z,0
2022-10-13T02:38:14.283Z,0
2022-10-13T02:39:14.473Z,0
2022-10-13T02:40:14.061Z,0
2022-10-13T02:41:14.627Z,0
2022-10-13T02:42:14.352Z,0
2022-10-13T02:43:14.393Z,0
2022-10-13T02:44:14.399Z,0
2022-10-13T02:45:14.424Z,0
2022-10-13T02:46:14.194Z,0
2022-10-13T02:47:14.716Z,0
2022-10-13T02:48:14.732Z,0
2022-10-13T02:49:14.748Z,0
2022-10-13T02:50:14.485Z,0
2022-10-13T02:51:14.522Z,0
2022-10-13T02:52:14.576Z,0
2022-10-13T02:53:14.810Z,0
2022-10-13T02:54:14.586Z,0
2022-10-13T02:55:15.046Z,0
2022-10-13T02:56:14.859Z,0
2022-10-13T02:57:14.393Z,0
2022-10-13T02:58:14.906Z,0
2022-10-13T02:59:14.405Z,0
2022-10-13T03:00:14.412Z,0
2022-10-13T03:01:15.024Z,0
2022-10-13T03:02:14.717Z,0
2022-10-13T03:03:14.734Z,0
2022-10-13T03:04:14.242Z,0
2022-10-13T03:05:14.756Z,0
2022-10-13T03:06:14.804Z,0
2022-10-13T03:07:14.556Z,0
2022-10-13T03:08:14.568Z,0
2022-10-13T03:09:14.841Z,0
2022-10-13T03:10:15.219Z,0
2022-10-13T03:11:15.017Z,0
2022-10-13T03:12:14.633Z,0
2022-10-13T03:13:15.183Z,0
2022-10-13T03:14:15.076Z,0
2022-10-13T03:15:14.700Z,0
2022-10-13T03:16:14.708Z,0
2022-10-13T03:17:20.218Z,0
2022-10-13T03:18:14.740Z,0
2022-10-13T03:19:15.268Z,0
2022-10-13T03:20:14.784Z,0
2022-10-13T03:21:15.416Z,0
2022-10-13T03:22:15.076Z,0
2022-10-13T03:23:15.087Z,0
2022-10-13T03:24:15.107Z,0
2022-10-13T03:25:14.855Z,0
2022-10-13T03:26:14.892Z,0
2022-10-13T03:27:15.259Z,0
2022-10-13T03:28:15.163Z,0
2022-10-13T03:29:15.206Z,0
2022-10-13T03:30:14.708Z,0
2022-10-13T03:31:14.723Z,0
2022-10-13T03:32:15.055Z,0
2022-10-13T03:33:15.267Z,0
2022-10-13T03:34:15.539Z,0
2022-10-13T03:35:14.787Z,0
2022-10-13T03:36:15.063Z,0
2022-10-13T03:37:15.592Z,0
2022-10-13T03:38:15.089Z,0
2022-10-13T03:39:15.621Z,0
2022-10-13T03:40:15.043Z,0
2022-10-13T03:41:14.908Z,0
2022-10-13T03:42:15.006Z,0
2022-10-13T03:43:15.869Z,0
2022-10-13T03:44:15.306Z,0
2022-10-13T03:45:15.494Z,0
2022-10-13T03:46:15.258Z,0
2022-10-13T03:47:15.507Z,0
2022-10-13T03:48:15.539Z,0
2022-10-13T03:49:15.352Z,0
2022-10-13T03:50:15.805Z,0
2022-10-13T03:51:15.621Z,0
2022-10-13T03:52:15.350Z,0
2022-10-13T03:53:15.875Z,0
2022-10-13T03:54:15.369Z,0
2022-10-13T03:55:15.382Z,0
2022-10-13T03:56:15.665Z,0
2022-10-13T03:57:15.327Z,0
2022-10-13T03:58:15.701Z,0
2022-10-13T03:59:16.136Z,0
2022-10-13T04:00:15.501Z,0
2022-10-13T04:01:15.782Z,0
2022-10-13T04:02:15.709Z,0
2022-10-13T04:03:15.783Z,0
2022-10-13T04:04:15.554Z,0
2022-10-13T04:05:15.820Z,0
2022-10-13T04:06:15.584Z,0
2022-10-13T04:07:15.606Z,0
2022-10-13T04:08:15.877Z,0
2022-10-13T04:09:15.904Z,0
2022-10-13T04:10:20.362Z,0
2022-10-13T04:11:15.661Z,0
2022-10-13T04:12:22.148Z,0
2022-10-13T04:13:15.959Z,0
2022-10-13T04:14:15.988Z,0
2022-10-13T04:15:16.589Z,0
2022-10-13T04:16:15.757Z,0
2022-10-13T04:17:16.067Z,0
2022-10-13T04:18:15.786Z,0
2022-10-13T04:19:16.074Z,0
2022-10-13T04:20:16.344Z,0
2022-10-13T04:21:16.229Z,0
2022-10-13T04:22:16.380Z,0
2022-10-13T04:23:16.136Z,0
2022-10-13T04:24:16.155Z,0
2022-10-13T04:25:16.176Z,0
2022-10-13T04:26:16.450Z,0
2022-10-13T04:27:16.215Z,0
2022-10-13T04:28:16.634Z,0
2022-10-13T04:29:15.489Z,0
2022-10-13T04:30:19.876Z,0
2022-10-13T04:31:16.657Z,0
2022-10-13T04:32:16.836Z,0
2022-10-13T04:33:16.649Z,0
2022-10-13T04:34:16.076Z,0
2022-10-13T04:35:16.347Z,0
2022-10-13T04:36:16.374Z,0
2022-10-13T04:37:16.683Z,0
2022-10-13T04:38:16.409Z,0
2022-10-13T04:39:16.444Z,0
2022-10-13T04:40:15.915Z,0
2022-10-13T04:41:16.717Z,0
2022-10-13T04:42:16.251Z,0
2022-10-13T04:43:16.761Z,0
2022-10-13T04:44:16.508Z,0
2022-10-13T04:45:16.676Z,0
2022-10-13T04:46:16.356Z,0
2022-10-13T04:47:16.691Z,0
2022-10-13T04:48:16.678Z,0
2022-10-13T04:49:16.666Z,0
2022-10-13T04:50:16.871Z,0
2022-10-13T04:51:16.687Z,0
2022-10-13T04:52:16.846Z,0
2022-10-13T04:53:21.677Z,0
2022-10-13T04:54:16.693Z,0
2022-10-13T04:55:16.974Z,0
2022-10-13T04:56:16.203Z,0
2022-10-13T04:57:16.745Z,0
2022-10-13T04:58:16.751Z,0
2022-10-13T04:59:17.034Z,0
2022-10-13T05:00:16.540Z,0
2022-10-13T05:01:22.397Z,0
2022-10-13T05:02:17.076Z,0
2022-10-13T05:03:16.851Z,0
2022-10-13T05:04:16.848Z,0
2022-10-13T05:05:16.907Z,0
2022-10-13T05:06:16.903Z,0
2022-10-13T05:07:32.127Z,0
2022-10-13T05:08:17.187Z,0
2022-10-13T05:09:16.950Z,0
2022-10-13T05:10:16.714Z,0
2022-10-13T05:11:16.719Z,0
2022-10-13T05:12:17.433Z,0
2022-10-13T05:13:16.761Z,0
2022-10-13T05:14:16.778Z,0
2022-10-13T05:15:17.055Z,0
2022-10-13T05:16:16.812Z,0
2022-10-13T05:17:17.133Z,0
2022-10-13T05:18:17.145Z,0
2022-10-13T05:19:17.156Z,0
2022-10-13T05:20:16.873Z,0
2022-10-13T05:21:17.488Z,0
2022-10-13T05:22:17.089Z,0
2022-10-13T05:23:16.930Z,0
2022-10-13T05:24:17.207Z,0
2022-10-13T05:25:16.759Z,0
2022-10-13T05:26:17.229Z,0
2022-10-13T05:27:17.434Z,0
2022-10-13T05:28:17.628Z,0
2022-10-13T05:29:17.288Z,0
2022-10-13T05:30:17.314Z,0
2022-10-13T05:31:17.073Z,0
2022-10-13T05:32:18.025Z,0
2022-10-13T05:33:17.435Z,0
2022-10-13T05:34:17.445Z,0
2022-10-13T05:35:17.176Z,0
2022-10-13T05:36:17.160Z,0
2022-10-13T05:37:17.664Z,0
2022-10-13T05:38:17.454Z,0
2022-10-13T05:39:17.739Z,0
2022-10-13T05:40:17.842Z,0
2022-10-13T05:41:17.653Z,0
2022-10-13T05:42:18.084Z,0
2022-10-13T05:43:17.706Z,0
2022-10-13T05:44:16.801Z,0
2022-10-13T05:45:17.827Z,0
2022-10-13T05:46:17.852Z,0
2022-10-13T05:47:17.859Z,0
2022-10-13T05:48:17.476Z,0
2022-10-13T05:49:18.053Z,0
2022-10-13T05:50:17.763Z,0
2022-10-13T05:51:18.056Z,0
2022-10-13T05:52:18.289Z,0
2022-10-13T05:53:17.998Z,0
2022-10-13T05:54:17.716Z,0
2022-10-13T05:55:18.014Z,0
2022-10-13T05:56:17.507Z,0
2022-10-13T05:57:17.661Z,0
2022-10-13T05:58:17.531Z,0
2022-10-13T05:59:17.813Z,0
2022-10-13T06:00:17.598Z,0
2022-10-13T06:01:18.117Z,0
2022-10-13T06:02:18.265Z,0
2022-10-13T06:03:18.141Z,0
2022-10-13T06:04:17.662Z,5
2022-10-13T06:05:17.948Z,5
2022-10-13T06:06:17.999Z,5
2022-10-13T06:07:18.313Z,5
2022-10-13T06:08:17.984Z,5
2022-10-13T06:09:17.497Z,5
2022-10-13T06:10:18.003Z,5
2022-10-13T06:11:18.042Z,5
2022-10-13T06:12:18.239Z,5
2022-10-13T06:13:18.060Z,5
2022-10-13T06:14:17.550Z,5
2022-10-13T06:15:17.871Z,5
2022-10-13T06:16:18.109Z,5
2022-10-13T06:17:17.623Z,5
2022-10-13T06:18:17.907Z,5
2022-10-13T06:19:17.913Z,5
2022-10-13T06:20:17.683Z,5
2022-10-13T06:21:17.818Z,5
2022-10-13T06:22:18.938Z,5
2022-10-13T06:23:18.261Z,5
2022-10-13T06:24:18.009Z,5
2022-10-13T06:25:18.578Z,10
2022-10-13T06:26:18.032Z,5
2022-10-13T06:27:18.313Z,10
2022-10-13T06:28:18.476Z,10
2022-10-13T06:29:18.731Z,5
2022-10-13T06:30:18.629Z,5
2022-10-13T06:31:18.119Z,10
2022-10-13T06:32:18.518Z,10
2022-10-13T06:33:18.146Z,10
2022-10-13T06:34:18.431Z,5
2022-10-13T06:35:18.716Z,5
2022-10-13T06:36:18.735Z,5
2022-10-13T06:37:21.192Z,10
2022-10-13T06:38:18.550Z,10
2022-10-13T06:39:18.533Z,10
2022-10-13T06:40:18.796Z,10
2022-10-13T06:41:18.596Z,10
2022-10-13T06:42:18.656Z,10
2022-10-13T06:43:18.334Z,10
2022-10-13T06:44:18.608Z,10
2022-10-13T06:45:18.362Z,10
2022-10-13T06:46:18.962Z,10
2022-10-13T06:47:18.144Z,15
2022-10-13T06:48:18.684Z,15
2022-10-13T06:49:18.966Z,15
2022-10-13T06:50:18.214Z,15
2022-10-13T06:51:18.480Z,15
2022-10-13T06:52:19.372Z,15
2022-10-13T06:53:18.527Z,15
2022-10-13T06:54:18.886Z,15
2022-10-13T06:55:18.892Z,15
2022-10-13T06:56:18.559Z,15
2022-10-13T06:57:18.908Z,20
2022-10-13T06:58:19.151Z,15
2022-10-13T06:59:18.879Z,15
2022-10-13T07:00:19.167Z,20
2022-10-13T07:01:18.797Z,20
2022-10-13T07:02:18.947Z,20
2022-10-13T07:03:18.955Z,20
2022-10-13T07:04:18.963Z,20
2022-10-13T07:05:18.981Z,20
2022-10-13T07:06:19.284Z,20
2022-10-13T07:07:19.011Z,20
2022-10-13T07:08:18.796Z,20
2022-10-13T07:09:19.390Z,20
2022-10-13T07:10:19.127Z,20
2022-10-13T07:11:24.973Z,20
2022-10-13T07:12:20.187Z,20
2022-10-13T07:13:19.453Z,20
2022-10-13T07:14:19.168Z,20
2022-10-13T07:15:19.589Z,20
2022-10-13T07:16:19.538Z,20
2022-10-13T07:17:19.258Z,20
2022-10-13T07:18:18.950Z,20
2022-10-13T07:19:19.227Z,25
2022-10-13T07:20:19.301Z,25
2022-10-13T07:21:18.949Z,30
2022-10-13T07:22:19.290Z,30
2022-10-13T07:23:19.320Z,30
2022-10-13T07:24:19.333Z,30
2022-10-13T07:25:19.356Z,30
2022-10-13T07:26:19.305Z,30
2022-10-13T07:27:19.147Z,30
2022-10-13T07:28:19.685Z,30
2022-10-13T07:29:19.599Z,30
2022-10-13T07:30:18.910Z,30
2022-10-13T07:31:19.600Z,30
2022-10-13T07:32:19.727Z,30
2022-10-13T07:33:19.220Z,30
2022-10-13T07:34:19.568Z,30
2022-10-13T07:35:19.515Z,30
2022-10-13T07:36:19.528Z,30
2022-10-13T07:37:20.463Z,30
2022-10-13T07:38:19.611Z,30
2022-10-13T07:39:19.594Z,30
2022-10-13T07:40:19.876Z,35
2022-10-13T07:41:19.405Z,35
2022-10-13T07:42:19.833Z,35
2022-10-13T07:43:19.953Z,35
2022-10-13T07:44:19.777Z,35
2022-10-13T07:45:20.118Z,35
2022-10-13T07:46:19.712Z,35
2022-10-13T07:47:20.555Z,35
2022-10-13T07:48:20.217Z,35
2022-10-13T07:49:23.779Z,35
2022-10-13T07:50:20.067Z,35
2022-10-13T07:51:19.912Z,35
2022-10-13T07:52:20.681Z,35
2022-10-13T07:53:19.852Z,35
2022-10-13T07:54:22.543Z,35
2022-10-13T07:55:19.610Z,40
2022-10-13T07:56:19.634Z,40
2022-10-13T07:57:19.683Z,40
2022-10-13T07:58:20.284Z,40
2022-10-13T07:59:20.057Z,40
2022-10-13T08:00:19.932Z,45
2022-10-13T08:01:20.353Z,45
2022-10-13T08:02:20.705Z,45
2022-10-13T08:03:20.278Z,45
2022-10-13T08:04:20.036Z,45
2022-10-13T08:05:20.328Z,45
2022-10-13T08:06:20.052Z,45
2022-10-13T08:07:20.955Z,45
2022-10-13T08:08:19.851Z,45
2022-10-13T08:09:20.374Z,45
2022-10-13T08:10:19.941Z,45
2022-10-13T08:11:24.873Z,40
2022-10-13T08:12:21.353Z,40
2022-10-13T08:13:20.479Z,45
2022-10-13T08:14:20.582Z,45
2022-10-13T08:15:20.532Z,45
2022-10-13T08:16:20.251Z,45
2022-10-13T08:17:21.072Z,45
2022-10-13T08:18:20.023Z,45
2022-10-13T08:19:20.032Z,45
2022-10-13T08:20:20.366Z,45
2022-10-13T08:22:11.482Z,45
2022-10-13T08:23:21.298Z,45
2022-10-13T08:24:21.350Z,45
2022-10-13T08:25:21.343Z,45
2022-10-13T08:26:21.101Z,45
2022-10-13T08:27:22.389Z,50
2022-10-13T08:28:21.424Z,50
2022-10-13T08:29:37.389Z,50
2022-10-13T08:30:22.058Z,50
2022-10-13T08:31:22.896Z,50
2022-10-13T08:32:22.363Z,50
2022-10-13T08:33:21.004Z,50
2022-10-13T08:34:21.784Z,45
2022-10-13T08:35:21.264Z,45
2022-10-13T08:36:21.793Z,45
2022-10-13T08:37:21.805Z,45
2022-10-13T08:38:21.088Z,45
2022-10-13T08:39:21.857Z,45
2022-10-13T08:40:21.775Z,50
2022-10-13T08:41:21.888Z,50
2022-10-13T08:42:22.899Z,55
2022-10-13T08:43:21.689Z,55
2022-10-13T08:45:51.533Z,55
2022-10-13T08:46:01.626Z,55
2022-10-13T08:47:01.640Z,55
2022-10-13T08:48:01.365Z,60
2022-10-13T08:49:01.689Z,60
2022-10-13T08:50:08.243Z,70
2022-10-13T08:51:01.177Z,75
2022-10-13T08:52:01.199Z,80
2022-10-13T08:53:01.969Z,80
2022-10-13T08:54:00.969Z,85
2022-10-13T08:55:01.542Z,80
2022-10-13T08:56:01.540Z,80
2022-10-13T08:57:04.496Z,80
2022-10-13T08:58:01.305Z,80
2022-10-13T08:59:01.830Z,80
2022-10-13T09:00:01.865Z,85
2022-10-13T09:01:02.002Z,85
2022-10-13T09:02:02.394Z,85
2022-10-13T09:03:01.680Z,85
2022-10-13T09:04:01.414Z,80
2022-10-13T09:05:02.065Z,70
2022-10-13T09:06:01.973Z,75
2022-10-13T09:07:01.982Z,75
2022-10-13T09:08:01.826Z,75
2022-10-13T09:09:01.270Z,70
2022-10-13T09:10:01.553Z,75
2022-10-13T09:11:01.815Z,80
2022-10-13T09:12:01.822Z,80
2022-10-13T09:13:01.848Z,80
2022-10-13T09:14:01.596Z,80
2022-10-13T09:15:01.874Z,85
2022-10-13T09:16:01.895Z,85
2022-10-13T09:17:01.860Z,90
2022-10-13T09:18:02.194Z,95
2022-10-13T09:19:02.233Z,95
2022-10-13T09:20:01.954Z,90
2022-10-13T09:21:02.520Z,95
2022-10-13T09:22:01.963Z,95
2022-10-13T09:23:02.016Z,95
2022-10-13T09:24:02.027Z,95
2022-10-13T09:25:01.797Z,90
2022-10-13T09:26:01.826Z,85
2022-10-13T09:27:01.842Z,80
2022-10-13T09:28:02.117Z,80
2022-10-13T09:29:02.697Z,85
2022-10-13T09:30:02.142Z,90
2022-10-13T09:31:01.927Z,85
2022-10-13T09:32:01.918Z,80
2022-10-13T09:33:02.908Z,75
2022-10-13T09:34:02.517Z,70
2022-10-13T09:35:01.996Z,65
2022-10-13T09:36:02.266Z,65
2022-10-13T09:37:02.572Z,60
2022-10-13T09:38:02.565Z,55
2022-10-13T09:39:02.300Z,55
2022-10-13T09:40:02.371Z,55
2022-10-13T09:41:01.832Z,55
2022-10-13T09:42:02.134Z,55
2022-10-13T09:43:02.738Z,60
2022-10-13T09:44:02.431Z,60
2022-10-13T09:45:02.427Z,65
2022-10-13T09:46:02.448Z,70
2022-10-13T09:47:02.448Z,70
2022-10-13T09:48:02.493Z,75
2022-10-13T09:49:02.370Z,75
2022-10-13T09:50:09.805Z,75
2022-10-13T09:51:02.629Z,80
2022-10-13T09:52:02.295Z,80
2022-10-13T09:53:02.413Z,80
2022-10-13T09:54:02.340Z,80
2022-10-13T09:55:02.612Z,85
2022-10-13T09:56:02.906Z,90
2022-10-13T09:57:02.637Z,85
2022-10-13T09:58:02.917Z,80
2022-10-13T09:59:02.698Z,75
2022-10-13T10:01:02.714Z,70
2022-10-13T10:02:02.939Z,70
2022-10-13T10:03:02.647Z,75
2022-10-13T10:04:03.376Z,80
2022-10-13T10:05:03.131Z,80
2022-10-13T10:06:03.366Z,85
2022-10-13T10:07:02.863Z,85
2022-10-13T10:08:02.894Z,85
2022-10-13T10:09:18.253Z,85
2022-10-13T10:10:02.641Z,95
2022-10-13T10:11:03.181Z,95
2022-10-13T10:12:03.170Z,95
2022-10-13T10:13:02.908Z,95
2022-10-13T10:14:03.209Z,95
2022-10-13T10:15:02.471Z,95
2022-10-13T10:16:03.020Z,90
2022-10-13T10:17:03.059Z,90
2022-10-13T10:18:03.353Z,90
2022-10-13T10:19:07.702Z,90
2022-10-13T10:20:02.973Z,90
2022-10-13T10:21:03.163Z,90
2022-10-13T10:22:03.418Z,85
2022-10-13T10:23:03.162Z,90
2022-10-13T10:24:03.153Z,90
2022-10-13T10:25:02.928Z,90
2022-10-13T10:26:02.673Z,85
2022-10-13T10:27:03.203Z,85
2022-10-13T10:28:03.213Z,80
2022-10-13T10:29:03.454Z,85
2022-10-13T10:30:03.274Z,90
2022-10-13T10:31:03.275Z,95
2022-10-13T10:32:03.551Z,100
2022-10-13T10:33:03.241Z,105
2022-10-13T10:34:03.585Z,105
2022-10-13T10:35:03.349Z,105
2022-10-13T10:36:03.371Z,100
2022-10-13T10:37:03.203Z,100
2022-10-13T10:38:03.667Z,105
2022-10-13T10:39:03.709Z,105
2022-10-13T10:40:02.944Z,110
2022-10-13T10:41:03.395Z,105
2022-10-13T10:42:03.744Z,110
2022-10-13T10:43:03.745Z,110
2022-10-13T10:44:03.113Z,110
2022-10-13T10:45:03.550Z,105
2022-10-13T10:46:03.804Z,100
2022-10-13T10:47:03.570Z,100
2022-10-13T10:48:03.880Z,100
2022-10-13T10:49:03.121Z,100
2022-10-13T10:50:03.899Z,100
2022-10-13T10:51:03.926Z,105
2022-10-13T10:52:03.726Z,100
2022-10-13T10:53:04.047Z,100
2022-10-13T10:54:03.196Z,100
2022-10-13T10:55:03.479Z,105
2022-10-13T10:56:03.497Z,100
2022-10-13T10:57:04.074Z,100
2022-10-13T10:58:03.783Z,100
2022-10-13T10:59:03.282Z,100
2022-10-13T11:00:03.570Z,100
2022-10-13T11:01:04.117Z,100
2022-10-13T11:02:04.256Z,105
2022-10-13T11:03:03.878Z,105
2022-10-13T11:04:03.680Z,105
2022-10-13T11:05:10.964Z,105
2022-10-13T11:06:04.184Z,100
2022-10-13T11:07:03.704Z,100
2022-10-13T11:08:04.138Z,105
2022-10-13T11:09:04.546Z,115
2022-10-13T11:10:03.773Z,125
2022-10-13T11:11:04.085Z,120
2022-10-13T11:12:04.052Z,115
2022-10-13T11:13:04.354Z,105
2022-10-13T11:14:04.426Z,95
2022-10-13T11:15:04.380Z,95
2022-10-13T11:16:04.390Z,85
2022-10-13T11:17:03.900Z,85
2022-10-13T11:18:04.168Z,85
2022-10-13T11:19:04.205Z,95
2022-10-13T11:20:04.485Z,105
2022-10-13T11:21:04.226Z,110
2022-10-13T11:22:04.611Z,115
2022-10-13T11:23:04.269Z,115
2022-10-13T11:24:10.271Z,115
2022-10-13T11:25:04.344Z,110
2022-10-13T11:26:04.580Z,110
2022-10-13T11:27:04.645Z,115
2022-10-13T11:28:04.114Z,120
2022-10-13T11:29:04.488Z,125
2022-10-13T11:30:04.689Z,120
2022-10-13T11:31:04.438Z,115
2022-10-13T11:32:04.441Z,115
2022-10-13T11:33:04.206Z,115
2022-10-13T11:34:04.269Z,125
2022-10-13T11:35:04.523Z,120
2022-10-13T11:36:04.271Z,115
2022-10-13T11:37:04.286Z,115
2022-10-13T11:38:22.939Z,115
2022-10-13T11:39:04.862Z,100
2022-10-13T11:40:05.002Z,95
2022-10-13T11:41:04.625Z,90
2022-10-13T11:42:04.386Z,90
2022-10-13T11:43:13.333Z,90
2022-10-13T11:44:04.677Z,95
2022-10-13T11:45:04.859Z,100
2022-10-13T11:46:04.993Z,95
2022-10-13T11:47:05.005Z,85
2022-10-13T11:48:04.985Z,80
2022-10-13T11:49:04.782Z,90
2022-10-13T11:50:04.533Z,95
2022-10-13T11:51:05.087Z,90
2022-10-13T11:52:05.122Z,80
2022-10-13T11:53:04.844Z,80
2022-10-13T11:54:04.366Z,75
2022-10-13T11:55:04.895Z,75
2022-10-13T11:56:04.995Z,70
2022-10-13T11:57:04.672Z,70
2022-10-13T11:58:04.950Z,70
2022-10-13T11:59:04.746Z,75
2022-10-13T12:00:05.020Z,90
2022-10-13T12:01:05.066Z,90
2022-10-13T12:02:05.294Z,85
2022-10-13T12:03:05.471Z,85
2022-10-13T12:04:05.109Z,85
2022-10-13T12:05:05.088Z,90
2022-10-13T12:06:04.587Z,100
2022-10-13T12:07:04.898Z,105
2022-10-13T12:08:05.287Z,105
2022-10-13T12:09:04.914Z,110
2022-10-13T12:10:05.380Z,105
2022-10-13T12:11:05.233Z,105
2022-10-13T12:12:05.584Z,105
2022-10-13T12:13:05.237Z,105
2022-10-13T12:14:05.410Z,105
2022-10-13T12:15:11.846Z,100
2022-10-13T12:16:05.065Z,100
2022-10-13T12:17:05.370Z,90
2022-10-13T12:18:05.329Z,90
2022-10-13T12:19:05.101Z,85
2022-10-13T12:20:05.386Z,80
2022-10-13T12:21:05.398Z,70
2022-10-13T12:22:05.359Z,70
2022-10-13T12:23:05.333Z,75
2022-10-13T12:24:05.351Z,75
2022-10-13T12:25:05.466Z,85
2022-10-13T12:26:05.237Z,85
2022-10-13T12:27:05.357Z,90
2022-10-13T12:28:05.938Z,95
2022-10-13T12:29:05.564Z,100
2022-10-13T12:30:05.649Z,100
2022-10-13T12:31:05.910Z,105
2022-10-13T12:32:05.377Z,105
2022-10-13T12:33:05.734Z,105
2022-10-13T12:34:05.720Z,105
2022-10-13T12:35:05.956Z,100
2022-10-13T12:36:05.703Z,95
2022-10-13T12:37:06.044Z,95
2022-10-13T12:38:05.466Z,95
2022-10-13T12:39:05.740Z,90
2022-10-13T12:40:05.808Z,90
2022-10-13T12:41:06.032Z,90
2022-10-13T12:42:05.800Z,90
2022-10-13T12:43:05.563Z,95
2022-10-13T12:44:11.819Z,90
2022-10-13T12:45:05.608Z,90
2022-10-13T12:46:06.139Z,90
2022-10-13T12:47:05.913Z,85
2022-10-13T12:48:05.925Z,80
2022-10-13T12:49:05.994Z,80
2022-10-13T12:50:05.796Z,75
2022-10-13T12:51:05.972Z,75
2022-10-13T12:52:05.732Z,75
2022-10-13T12:53:06.295Z,70
2022-10-13T12:54:06.039Z,65
2022-10-13T12:55:05.536Z,70
2022-10-13T12:56:06.151Z,70
2022-10-13T12:57:05.852Z,65
2022-10-13T12:58:06.127Z,65
2022-10-13T12:59:06.419Z,65
2022-10-13T13:00:06.582Z,60
2022-10-13T13:01:06.610Z,60
2022-10-13T13:02:05.685Z,60
2022-10-13T13:03:06.513Z,65
2022-10-13T13:04:05.714Z,60
2022-10-13T13:05:06.538Z,55
2022-10-13T13:06:09.743Z,55
2022-10-13T13:07:06.295Z,55
2022-10-13T13:08:06.564Z,55
2022-10-13T13:09:06.316Z,50
2022-10-13T13:10:06.462Z,50
2022-10-13T13:11:06.616Z,55
2022-10-13T13:12:06.396Z,60
2022-10-13T13:13:06.166Z,60
2022-10-13T13:14:06.436Z,60
2022-10-13T13:15:06.454Z,65
2022-10-13T13:16:06.554Z,70
2022-10-13T13:17:09.493Z,80
2022-10-13T13:18:08.144Z,85
2022-10-13T13:19:06.557Z,95
2022-10-13T13:20:06.695Z,95
2022-10-13T13:21:06.673Z,95
2022-10-13T13:22:06.543Z,85
2022-10-13T13:23:06.619Z,80
2022-10-13T13:24:39.662Z,80
2022-10-13T13:25:06.385Z,80
2022-10-13T13:26:06.394Z,80
2022-10-13T13:27:06.697Z,85
2022-10-13T13:28:06.442Z,95
2022-10-13T13:29:06.476Z,95
2022-10-13T13:30:06.488Z,100
2022-10-13T13:31:06.778Z,100
2022-10-13T13:32:07.158Z,105
2022-10-13T13:33:07.076Z,105
2022-10-13T13:34:06.037Z,105
2022-10-13T13:35:07.139Z,100
2022-10-13T13:36:07.121Z,95
2022-10-13T13:37:07.171Z,90
2022-10-13T13:38:06.892Z,85
2022-10-13T13:39:07.191Z,85
2022-10-13T13:40:07.129Z,80
2022-10-13T13:41:10.948Z,75
2022-10-13T13:42:06.967Z,75
2022-10-13T13:43:06.499Z,70
2022-10-13T13:44:06.488Z,70
2022-10-13T13:45:07.044Z,70
2022-10-13T13:46:07.056Z,70
2022-10-13T13:47:07.069Z,70
2022-10-13T13:48:10.355Z,70
2022-10-13T13:49:06.899Z,65
2022-10-13T13:50:07.258Z,60
2022-10-13T13:51:07.429Z,55
2022-10-13T13:52:07.169Z,60
2022-10-13T13:53:07.471Z,65
2022-10-13T13:54:07.456Z,65
2022-10-13T13:55:07.246Z,70
2022-10-13T13:56:07.710Z,70
2022-10-13T13:57:08.096Z,70
2022-10-13T13:58:06.770Z,70
2022-10-13T13:59:07.313Z,70
2022-10-13T14:00:06.801Z,70
2022-10-13T14:01:07.714Z,70
2022-10-13T14:02:07.260Z,75
2022-10-13T14:03:07.754Z,75
2022-10-13T14:04:07.728Z,80
2022-10-13T14:05:07.163Z,80
2022-10-13T14:06:07.200Z,75
2022-10-13T14:07:07.510Z,70
2022-10-13T14:08:07.658Z,70
2022-10-13T14:09:07.792Z,65
2022-10-13T14:10:11.276Z,65
2022-10-13T14:11:07.436Z,65
2022-10-13T14:12:07.578Z,60
2022-10-13T14:13:07.727Z,55
2022-10-13T14:14:07.412Z,50
2022-10-13T14:15:07.217Z,50
2022-10-13T14:16:07.639Z,40
2022-10-13T14:17:07.434Z,40
2022-10-13T14:18:06.907Z,35
2022-10-13T14:19:07.484Z,30
2022-10-13T14:20:08.046Z,30
2022-10-13T14:21:07.475Z,30
2022-10-13T14:22:25.972Z,30
2022-10-13T14:23:07.547Z,30
2022-10-13T14:24:07.547Z,30
2022-10-13T14:25:08.082Z,30
2022-10-13T14:26:07.832Z,30
2022-10-13T14:27:07.850Z,30
2022-10-13T14:28:07.868Z,25
2022-10-13T14:29:08.271Z,25